Time;durP1;ratioP1;P1;durP2;ratioP2;P2;SDS_P1;SDS_P2;PMS_P1;PMS_P2;Temp;Humidity;BMP_temperature;BMP_pressure;BME280_temperature;BME280_humidity;BME280_pressure;Samples;Min_cycle;Max_cycle;Signal;HPM_P1;HPM_P2
2023/03/13 00:01:00;;;;;;;40.75;6.47;;;8.80;99.90;;;;;;6066397;23;20025;-86
2023/03/13 00:03:27;;;;;;;38.33;7.97;;;8.80;99.90;;;;;;6043431;23;20069;-86
2023/03/13 00:05:57;;;;;;;32.20;6.65;;;8.80;99.90;;;;;;6043596;23;20073;-87
2023/03/13 00:08:24;;;;;;;29.88;6.50;;;8.80;99.90;;;;;;6067420;23;20022;-87
2023/03/13 00:10:50;;;;;;;30.75;6.50;;;8.80;99.90;;;;;;6066657;23;20014;-87
2023/03/13 00:13:15;;;;;;;33.45;6.47;;;8.80;99.90;;;;;;6043584;23;20060;-86
2023/03/13 00:15:41;;;;;;;33.58;6.68;;;8.70;99.90;;;;;;6067001;23;20054;-87
2023/03/13 00:18:07;;;;;;;30.02;6.25;;;8.80;99.90;;;;;;6067947;23;20069;-86
2023/03/13 00:20:32;;;;;;;32.88;6.65;;;8.70;99.90;;;;;;6041507;23;20176;-86
2023/03/13 00:22:58;;;;;;;35.95;6.72;;;8.80;99.90;;;;;;6043074;23;20021;-86
2023/03/13 00:25:24;;;;;;;32.33;6.80;;;8.70;99.90;;;;;;6067200;23;20019;-86
2023/03/13 00:27:49;;;;;;;33.97;6.45;;;8.80;99.90;;;;;;6068059;23;20036;-86
2023/03/13 00:30:15;;;;;;;37.22;8.20;;;8.70;99.90;;;;;;6043313;23;20018;-85
2023/03/13 00:32:45;;;;;;;40.25;7.15;;;8.80;99.90;;;;;;6043160;23;20059;-84
2023/03/13 00:35:12;;;;;;;35.30;6.90;;;8.70;99.90;;;;;;6043637;23;20561;-86
2023/03/13 00:37:37;;;;;;;31.45;6.18;;;8.70;99.90;;;;;;6067641;23;20022;-86
2023/03/13 00:40:05;;;;;;;31.58;6.22;;;8.80;99.90;;;;;;6042944;23;20046;-87
2023/03/13 00:42:30;;;;;;;33.75;6.30;;;8.70;99.90;;;;;;6043107;23;20029;-85
2023/03/13 00:44:56;;;;;;;33.97;6.65;;;8.70;99.90;;;;;;6043517;23;20014;-86
2023/03/13 00:47:22;;;;;;;30.60;5.47;;;8.70;99.90;;;;;;6043713;23;20018;-85
2023/03/13 00:49:48;;;;;;;29.70;5.25;;;8.70;99.90;;;;;;6043774;23;20026;-85
2023/03/13 00:52:13;;;;;;;29.70;5.82;;;8.70;99.90;;;;;;6092718;23;20010;-86
2023/03/13 00:54:39;;;;;;;26.50;5.38;;;8.60;99.90;;;;;;6067643;23;20019;-86
2023/03/13 00:57:04;;;;;;;32.40;5.85;;;8.70;99.90;;;;;;6042475;23;20042;-85
2023/03/13 00:59:30;;;;;;;29.15;6.07;;;8.70;99.90;;;;;;6044257;23;20409;-83
2023/03/13 01:01:55;;;;;;;31.77;6.90;;;8.70;99.90;;;;;;6044972;23;20025;-87
2023/03/13 01:04:21;;;;;;;39.83;6.13;;;8.70;99.90;;;;;;6069010;23;20018;-86
2023/03/13 01:06:47;;;;;;;34.28;6.15;;;8.70;99.90;;;;;;6045787;23;20022;-85
2023/03/13 01:09:15;;;;;;;36.08;7.15;;;8.70;99.90;;;;;;6045529;23;20025;-85
2023/03/13 01:11:44;;;;;;;30.48;6.22;;;8.60;99.90;;;;;;6068450;23;20015;-85
2023/03/13 01:14:13;;;;;;;31.75;6.22;;;8.70;99.90;;;;;;6045226;23;20025;-86
2023/03/13 01:16:40;;;;;;;33.78;6.25;;;8.60;99.90;;;;;;6067365;23;20022;-86
2023/03/13 01:19:09;;;;;;;33.47;7.38;;;8.70;99.90;;;;;;6045237;23;20113;-86
2023/03/13 01:21:35;;;;;;;30.75;5.28;;;8.60;99.90;;;;;;6068539;23;20018;-85
2023/03/13 01:24:01;;;;;;;25.60;5.15;;;8.70;99.90;;;;;;6044531;23;20117;-87
2023/03/13 01:26:27;;;;;;;37.38;6.35;;;8.60;99.90;;;;;;6068678;23;20732;-84
2023/03/13 01:28:53;;;;;;;27.88;6.03;;;8.60;99.90;;;;;;6045123;23;20015;-87
2023/03/13 01:31:28;;;;;;;31.77;6.88;;;8.70;99.90;;;;;;6068179;23;20018;-84
2023/03/13 01:33:56;;;;;;;34.08;5.90;;;8.70;99.90;;;;;;6044847;23;20021;-86
2023/03/13 01:36:23;;;;;;;22.60;4.95;;;8.80;99.90;;;;;;6068324;23;20015;-86
2023/03/13 01:38:50;;;;;;;29.40;5.95;;;8.70;99.90;;;;;;6069069;23;20014;-85
2023/03/13 01:41:16;;;;;;;25.23;4.75;;;8.70;99.90;;;;;;6044601;23;20014;-87
2023/03/13 01:43:42;;;;;;;32.22;5.40;;;8.70;99.90;;;;;;6044221;23;20451;-86
2023/03/13 01:46:17;;;;;;;31.80;6.43;;;8.70;99.90;;;;;;6068966;23;20542;-87
2023/03/13 01:48:58;;;;;;;30.45;5.65;;;8.80;99.90;;;;;;6045305;23;20474;-86
2023/03/13 01:51:32;;;;;;;30.23;6.80;;;8.80;99.90;;;;;;6042890;23;20045;-86
2023/03/13 01:54:10;;;;;;;26.73;5.38;;;8.80;99.90;;;;;;6044546;23;20120;-85
2023/03/13 01:57:08;;;;;;;26.08;4.95;;;8.90;99.90;;;;;;6044703;23;20015;-86
2023/03/13 01:59:56;;;;;;;22.73;5.60;;;8.90;99.90;;;;;;6037622;23;20455;-85
2023/03/13 02:02:23;;;;;;;21.02;4.85;;;8.90;99.90;;;;;;6043977;23;20069;-84
2023/03/13 02:04:54;;;;;;;33.90;6.70;;;9.00;99.90;;;;;;6045169;23;20022;-85
2023/03/13 02:07:30;;;;;;;31.00;6.10;;;8.90;99.90;;;;;;6043315;23;20010;-86
2023/03/13 02:09:56;;;;;;;31.40;6.13;;;8.90;99.90;;;;;;6067769;23;20010;-86
2023/03/13 02:12:40;;;;;;;30.63;5.85;;;8.90;99.90;;;;;;6044346;23;20022;-86
2023/03/13 02:15:10;;;;;;;29.65;6.10;;;8.90;99.90;;;;;;6044205;23;20014;-87
2023/03/13 02:17:37;;;;;;;23.38;5.22;;;8.90;99.90;;;;;;6043943;23;20073;-86
2023/03/13 02:20:04;;;;;;;21.85;5.68;;;8.80;99.90;;;;;;6044446;23;20022;-85
2023/03/13 02:23:02;;;;;;;29.80;5.70;;;8.80;99.90;;;;;;6068672;23;20042;-86
2023/03/13 02:25:41;;;;;;;19.65;4.43;;;8.80;99.90;;;;;;6069227;23;20022;-86
2023/03/13 02:28:08;;;;;;;22.05;4.35;;;8.80;99.90;;;;;;6044062;23;20721;-86
2023/03/13 02:30:34;;;;;;;18.10;5.45;;;8.90;99.90;;;;;;6043090;23;20021;-86
2023/03/13 02:33:01;;;;;;;15.85;4.47;;;8.90;99.90;;;;;;6044073;23;20010;-85
2023/03/13 02:35:28;;;;;;;19.45;4.97;;;8.80;99.90;;;;;;6068504;23;20072;-87
2023/03/13 02:37:58;;;;;;;15.20;4.80;;;8.80;99.90;;;;;;6043925;23;20098;-86
2023/03/13 02:40:29;;;;;;;13.35;4.55;;;8.80;99.90;;;;;;6068695;23;20049;-86
2023/03/13 02:43:00;;;;;;;19.90;4.55;;;8.80;99.90;;;;;;6044494;23;20018;-86
2023/03/13 02:45:25;;;;;;;19.55;5.65;;;8.80;99.90;;;;;;6044409;23;20077;-86
2023/03/13 02:47:51;;;;;;;16.45;4.43;;;8.90;99.90;;;;;;6066951;23;20470;-86
2023/03/13 02:50:16;;;;;;;14.05;3.53;;;8.80;99.90;;;;;;6043714;23;20089;-86
2023/03/13 02:52:49;;;;;;;12.55;4.28;;;8.90;99.90;;;;;;6043696;23;20450;-86
2023/03/13 02:55:21;;;;;;;9.82;3.70;;;8.90;99.90;;;;;;6044726;23;20014;-86
2023/03/13 02:57:47;;;;;;;12.63;3.60;;;8.90;99.90;;;;;;6044124;23;20117;-86
2023/03/13 03:00:15;;;;;;;13.68;3.95;;;8.90;99.90;;;;;;6043026;23;20037;-85
2023/03/13 03:02:41;;;;;;;9.90;3.72;;;8.90;99.90;;;;;;6066522;23;20040;-86
2023/03/13 03:05:08;;;;;;;11.18;3.10;;;9.00;99.90;;;;;;6067629;23;20398;-86
2023/03/13 03:07:33;;;;;;;11.15;3.58;;;8.90;99.90;;;;;;6067701;23;20022;-86
2023/03/13 03:09:59;;;;;;;10.43;2.92;;;9.00;99.90;;;;;;6067556;23;20137;-85
2023/03/13 03:12:25;;;;;;;11.68;3.45;;;9.00;99.90;;;;;;6068020;23;20025;-87
2023/03/13 03:14:50;;;;;;;8.50;3.20;;;9.10;99.90;;;;;;6043552;23;20406;-85
2023/03/13 03:17:16;;;;;;;7.82;2.83;;;9.10;99.90;;;;;;6067035;23;20046;-86
2023/03/13 03:19:41;;;;;;;7.07;3.72;;;9.10;99.90;;;;;;6066844;23;20014;-86
2023/03/13 03:22:08;;;;;;;8.70;3.20;;;9.10;99.90;;;;;;6066733;23;20014;-85
2023/03/13 03:24:33;;;;;;;8.82;2.85;;;9.20;99.90;;;;;;6068003;23;20466;-85
2023/03/13 03:26:59;;;;;;;7.35;2.72;;;9.20;99.90;;;;;;6044372;23;20053;-86
2023/03/13 03:29:24;;;;;;;7.75;3.35;;;9.30;99.90;;;;;;6066941;23;20018;-86
2023/03/13 03:31:50;;;;;;;10.75;3.58;;;9.30;99.90;;;;;;6041637;23;20018;-87
2023/03/13 03:34:16;;;;;;;8.38;3.20;;;9.30;99.90;;;;;;6067615;23;20022;-86
2023/03/13 03:36:41;;;;;;;7.57;3.38;;;9.30;99.90;;;;;;6066557;23;20631;-86
2023/03/13 03:39:07;;;;;;;9.25;3.92;;;9.40;99.90;;;;;;6044305;23;20013;-86
2023/03/13 03:41:32;;;;;;;6.43;3.15;;;9.40;99.90;;;;;;6067106;23;20033;-86
2023/03/13 03:43:58;;;;;;;10.30;3.97;;;9.40;99.90;;;;;;6043338;23;20011;-85
2023/03/13 03:46:23;;;;;;;8.73;3.80;;;9.40;99.90;;;;;;6043549;23;20022;-84
2023/03/13 03:48:49;;;;;;;8.02;3.72;;;10.40;99.90;;;;;;6044326;23;20022;-86
2023/03/13 03:51:15;;;;;;;11.60;4.05;;;9.60;99.90;;;;;;6067999;23;20506;-87
2023/03/13 03:53:40;;;;;;;8.32;4.03;;;9.60;99.90;;;;;;6044062;23;20075;-86
2023/03/13 03:56:06;;;;;;;6.00;3.92;;;9.60;99.90;;;;;;6067825;23;20010;-87
2023/03/13 03:58:32;;;;;;;5.90;4.82;;;9.60;99.90;;;;;;6067901;23;20006;-86
2023/03/13 04:00:58;;;;;;;9.93;4.03;;;9.60;99.90;;;;;;6042607;23;20053;-86
2023/03/13 04:03:24;;;;;;;6.72;4.28;;;9.60;99.90;;;;;;6068009;23;20029;-86
2023/03/13 04:05:50;;;;;;;8.15;4.78;;;9.70;99.90;;;;;;6042777;23;20402;-87
2023/03/13 04:08:15;;;;;;;8.73;5.15;;;9.70;99.90;;;;;;6067854;23;20049;-87
2023/03/13 04:10:41;;;;;;;6.93;5.05;;;9.80;99.90;;;;;;6067241;23;20022;-85
2023/03/13 04:13:07;;;;;;;7.50;4.05;;;9.80;99.90;;;;;;6067404;23;20014;-85
2023/03/13 04:15:33;;;;;;;7.43;4.25;;;9.80;99.90;;;;;;6065777;23;20018;-86
2023/03/13 04:17:58;;;;;;;5.15;4.00;;;9.90;99.90;;;;;;6067670;23;20324;-87
2023/03/13 04:20:24;;;;;;;6.90;4.47;;;9.90;99.90;;;;;;6043567;23;20030;-87
2023/03/13 04:22:50;;;;;;;9.15;4.75;;;10.00;99.90;;;;;;6043625;23;20018;-87
2023/03/13 04:25:15;;;;;;;7.97;4.35;;;10.00;99.90;;;;;;6067474;23;20089;-86
2023/03/13 04:27:41;;;;;;;4.65;4.25;;;10.00;99.90;;;;;;6042993;23;20391;-86
2023/03/13 04:30:08;;;;;;;10.63;6.32;;;10.10;99.90;;;;;;6042510;23;20402;-86
2023/03/13 04:32:33;;;;;;;7.53;5.50;;;10.20;99.90;;;;;;6043218;23;20077;-86
2023/03/13 04:34:59;;;;;;;7.97;5.15;;;10.20;99.90;;;;;;6046564;23;20014;-87
2023/03/13 04:37:25;;;;;;;7.63;5.93;;;10.40;99.90;;;;;;6046858;23;20346;-87
2023/03/13 04:39:50;;;;;;;9.00;6.30;;;10.40;99.90;;;;;;6047095;23;20050;-84
2023/03/13 04:42:16;;;;;;;12.48;7.22;;;10.50;99.90;;;;;;6069642;23;20014;-86
2023/03/13 04:44:42;;;;;;;7.07;6.38;;;10.50;99.90;;;;;;6045487;23;20014;-87
2023/03/13 04:47:08;;;;;;;8.40;6.95;;;10.50;99.90;;;;;;6045732;23;20345;-87
2023/03/13 04:49:34;;;;;;;8.55;7.35;;;10.50;99.90;;;;;;6046477;23;20688;-86
2023/03/13 04:52:00;;;;;;;14.27;9.23;;;10.50;99.90;;;;;;6046858;23;20066;-86
2023/03/13 04:54:26;;;;;;;10.50;8.85;;;10.50;99.90;;;;;;6047527;23;20069;-88
2023/03/13 04:56:58;;;;;;;13.88;8.88;;;10.60;99.90;;;;;;6046433;23;20015;-87
2023/03/13 04:59:23;;;;;;;15.43;9.40;;;10.60;99.90;;;;;;6070976;23;20018;-86
2023/03/13 05:01:49;;;;;;;13.75;8.90;;;10.70;99.90;;;;;;6068399;23;20073;-86
2023/03/13 05:04:16;;;;;;;11.23;8.65;;;10.70;99.90;;;;;;6070453;23;20046;-87
2023/03/13 05:06:42;;;;;;;14.80;9.45;;;10.70;99.90;;;;;;6046879;23;20076;-86
2023/03/13 05:09:08;;;;;;;9.88;8.15;;;10.80;99.90;;;;;;6046895;23;20450;-86
2023/03/13 05:11:33;;;;;;;10.80;7.90;;;10.80;99.90;;;;;;6045665;23;20459;-87
2023/03/13 05:13:59;;;;;;;13.70;9.70;;;10.80;99.90;;;;;;6046081;23;20044;-85
2023/03/13 05:16:24;;;;;;;10.27;8.40;;;10.90;99.90;;;;;;6068517;23;20014;-88
2023/03/13 05:18:50;;;;;;;14.18;9.55;;;10.90;99.90;;;;;;6067749;23;20023;-87
2023/03/13 05:21:15;;;;;;;12.05;9.00;;;11.00;99.90;;;;;;6069319;23;20022;-86
2023/03/13 05:23:41;;;;;;;9.98;7.45;;;11.00;99.90;;;;;;6070141;23;20386;-85
2023/03/13 05:26:29;;;;;;;8.50;7.45;;;11.00;99.90;;;;;;6046481;23;20076;-88
2023/03/13 05:28:55;;;;;;;7.63;6.75;;;11.60;99.90;;;;;;6046635;23;20100;-87
2023/03/13 05:31:21;;;;;;;8.68;6.22;;;11.10;99.90;;;;;;6046474;23;20014;-87
2023/03/13 05:33:47;;;;;;;10.75;6.78;;;11.80;99.90;;;;;;6069868;23;20014;-85
2023/03/13 05:36:12;;;;;;;10.40;6.55;;;12.00;99.90;;;;;;6073101;23;20454;-86
2023/03/13 05:38:38;;;;;;;9.02;5.50;;;11.20;99.90;;;;;;6046963;23;20019;-87
2023/03/13 05:41:03;;;;;;;11.25;5.85;;;11.20;99.90;;;;;;6047591;23;20105;-86
2023/03/13 05:43:29;;;;;;;8.80;5.72;;;11.20;99.90;;;;;;6071346;23;20107;-87
2023/03/13 05:45:55;;;;;;;6.68;5.80;;;11.20;99.90;;;;;;6045708;23;20014;-86
2023/03/13 05:48:20;;;;;;;10.15;6.15;;;11.30;99.90;;;;;;6070643;23;20022;-89
2023/03/13 05:50:46;;;;;;;6.30;5.25;;;11.30;99.90;;;;;;6045732;23;20014;-87
2023/03/13 05:53:14;;;;;;;6.55;5.20;;;11.30;99.90;;;;;;6046578;23;20062;-89
2023/03/13 05:55:41;;;;;;;9.27;4.43;;;11.30;99.90;;;;;;6046266;23;20007;-86
2023/03/13 05:58:06;;;;;;;6.45;4.78;;;11.40;99.90;;;;;;6045746;23;20014;-87
2023/03/13 06:00:32;;;;;;;10.30;5.22;;;11.30;99.90;;;;;;6068776;23;20014;-81
2023/03/13 06:02:58;;;;;;;6.75;4.53;;;11.40;99.90;;;;;;6068312;23;20025;-84
2023/03/13 06:05:23;;;;;;;8.07;4.10;;;11.40;99.90;;;;;;6068041;23;20029;-84
2023/03/13 06:07:52;;;;;;;6.22;3.92;;;11.40;99.90;;;;;;6068770;23;20014;-87
2023/03/13 06:10:18;;;;;;;5.43;3.78;;;11.50;99.90;;;;;;6044930;23;20022;-85
2023/03/13 06:12:50;;;;;;;7.15;4.20;;;11.50;99.90;;;;;;6067122;23;20061;-84
2023/03/13 06:15:16;;;;;;;9.88;4.30;;;11.50;99.90;;;;;;6068246;23;20017;-85
2023/03/13 06:17:41;;;;;;;7.93;4.63;;;11.50;99.90;;;;;;6069602;23;20042;-88
2023/03/13 06:20:12;;;;;;;7.43;4.28;;;11.60;99.90;;;;;;6046604;23;20011;-87
2023/03/13 06:22:38;;;;;;;9.10;4.65;;;11.50;99.90;;;;;;6069837;23;20049;-87
2023/03/13 06:25:04;;;;;;;7.93;3.97;;;11.50;99.90;;;;;;6070927;23;20014;-89
2023/03/13 06:27:30;;;;;;;6.28;3.70;;;11.60;99.90;;;;;;6046039;23;20022;-87
2023/03/13 06:29:55;;;;;;;6.82;3.97;;;11.70;99.90;;;;;;6068217;23;20019;-88
2023/03/13 06:32:21;;;;;;;11.13;3.83;;;11.70;99.90;;;;;;6045362;23;20084;-87
2023/03/13 06:34:46;;;;;;;6.13;3.83;;;11.70;99.90;;;;;;6095419;23;20015;-88
2023/03/13 06:37:12;;;;;;;7.80;4.00;;;11.70;99.90;;;;;;6070126;23;20481;-88
2023/03/13 06:39:38;;;;;;;12.30;4.93;;;11.70;99.90;;;;;;6045368;23;20018;-87
2023/03/13 06:42:04;;;;;;;14.93;4.18;;;11.70;99.90;;;;;;6068986;23;20040;-87
2023/03/13 06:44:29;;;;;;;7.22;3.33;;;11.70;99.90;;;;;;6069711;23;20578;-87
2023/03/13 06:46:55;;;;;;;10.75;3.65;;;11.70;99.90;;;;;;6046058;23;20328;-87
2023/03/13 06:49:20;;;;;;;9.70;3.88;;;11.80;99.90;;;;;;6069721;23;20332;-87
2023/03/13 06:51:49;;;;;;;6.90;2.85;;;11.80;99.90;;;;;;6070052;23;20483;-90
2023/03/13 06:54:14;;;;;;;9.52;4.28;;;11.80;99.90;;;;;;6045684;23;20097;-86
2023/03/13 06:56:41;;;;;;;7.32;3.33;;;11.80;99.90;;;;;;6068741;23;20018;-88
2023/03/13 06:59:07;;;;;;;7.47;2.72;;;11.80;99.90;;;;;;6045172;23;20029;-85
2023/03/13 07:01:33;;;;;;;10.57;3.00;;;11.80;99.90;;;;;;6066101;23;20018;-84
2023/03/13 07:03:58;;;;;;;10.45;3.58;;;11.90;99.90;;;;;;6065224;23;20582;-86
2023/03/13 07:06:25;;;;;;;8.35;3.38;;;11.90;99.90;;;;;;6043952;23;20093;-86
2023/03/13 07:08:51;;;;;;;11.52;3.45;;;11.90;99.90;;;;;;6043020;23;20018;-87
2023/03/13 07:11:17;;;;;;;8.32;3.05;;;11.90;99.90;;;;;;6044961;23;20324;-86
2023/03/13 07:13:43;;;;;;;12.60;3.50;;;12.00;99.90;;;;;;6068522;23;20015;-87
2023/03/13 07:16:11;;;;;;;14.50;4.32;;;11.90;99.90;;;;;;6044817;23;20053;-86
2023/03/13 07:18:38;;;;;;;8.63;2.95;;;12.80;99.90;;;;;;6069552;23;20007;-85
2023/03/13 07:21:09;;;;;;;9.35;3.95;;;11.90;99.90;;;;;;6045230;23;20032;-87
2023/03/13 07:23:34;;;;;;;8.75;2.70;;;11.90;99.90;;;;;;6069241;23;20056;-85
2023/03/13 07:26:04;;;;;;;9.80;2.45;;;11.90;99.90;;;;;;6045345;23;20018;-87
2023/03/13 07:28:30;;;;;;;11.80;3.55;;;11.90;99.90;;;;;;6045506;23;20022;-86
2023/03/13 07:31:17;;;;;;;12.73;2.20;;;12.00;99.90;;;;;;6043948;23;20014;-87
2023/03/13 07:33:44;;;;;;;8.20;2.55;;;12.00;99.90;;;;;;6068817;23;20049;-86
2023/03/13 07:36:10;;;;;;;8.88;2.80;;;12.00;99.90;;;;;;6045516;23;20010;-86
2023/03/13 07:38:36;;;;;;;8.80;2.80;;;12.00;99.90;;;;;;6069770;23;20101;-88
2023/03/13 07:41:02;;;;;;;6.00;2.10;;;12.00;99.90;;;;;;6068793;23;20018;-88
2023/03/13 07:43:30;;;;;;;9.10;3.20;;;12.00;99.90;;;;;;6042950;23;20022;-86
2023/03/13 07:46:01;;;;;;;9.93;3.33;;;12.00;99.90;;;;;;6091810;23;20018;-87
2023/03/13 07:48:32;;;;;;;7.70;2.50;;;12.00;99.90;;;;;;6043335;23;20026;-86
2023/03/13 07:50:58;;;;;;;8.32;2.53;;;12.00;99.90;;;;;;6090635;23;20018;-87
2023/03/13 07:53:24;;;;;;;8.23;2.67;;;12.00;99.90;;;;;;6091223;23;20038;-86
2023/03/13 07:56:04;;;;;;;9.60;2.97;;;12.00;99.90;;;;;;6064903;23;20015;-87
2023/03/13 07:58:33;;;;;;;6.03;2.40;;;11.90;99.90;;;;;;6065794;23;20171;-87
2023/03/13 08:00:59;;;;;;;8.77;2.70;;;12.00;99.90;;;;;;6040298;23;20064;-87
2023/03/13 08:03:24;;;;;;;11.00;2.53;;;11.90;99.90;;;;;;6065564;23;20100;-87
2023/03/13 08:06:00;;;;;;;6.68;2.17;;;11.90;99.90;;;;;;6066580;23;20447;-87
2023/03/13 08:08:26;;;;;;;4.53;2.35;;;11.90;99.90;;;;;;6040522;23;20015;-87
2023/03/13 08:10:54;;;;;;;9.75;2.72;;;11.90;99.90;;;;;;6065610;23;20598;-87
2023/03/13 08:13:23;;;;;;;8.88;2.45;;;11.90;99.90;;;;;;6067119;23;20022;-88
2023/03/13 08:15:48;;;;;;;4.75;2.30;;;11.80;99.90;;;;;;6064795;23;20231;-86
2023/03/13 08:18:14;;;;;;;6.82;2.38;;;11.80;99.90;;;;;;6041569;23;20014;-87
2023/03/13 08:20:40;;;;;;;7.60;2.28;;;11.70;99.90;;;;;;6065693;23;20074;-87
2023/03/13 08:23:06;;;;;;;6.90;2.03;;;11.70;99.90;;;;;;6042804;23;20474;-87
2023/03/13 08:25:43;;;;;;;4.88;2.22;;;11.70;99.90;;;;;;6044940;23;20022;-90
2023/03/13 08:28:10;;;;;;;4.93;2.20;;;11.70;99.90;;;;;;6044993;23;20018;-86
2023/03/13 08:30:35;;;;;;;7.80;1.90;;;11.70;99.90;;;;;;6066545;23;20025;-85
2023/03/13 08:33:26;;;;;;;5.63;2.10;;;11.90;99.90;;;;;;6092189;23;20343;-86
2023/03/13 08:36:11;;;;;;;6.38;2.58;;;11.80;99.90;;;;;;6066375;23;20018;-86
2023/03/13 08:39:14;;;;;;;7.13;2.75;;;11.90;99.90;;;;;;6043459;23;20022;-87
2023/03/13 08:42:13;;;;;;;7.20;1.90;;;11.80;99.90;;;;;;6067113;23;20087;-85
2023/03/13 08:44:39;;;;;;;6.13;2.40;;;11.80;99.90;;;;;;6065838;23;20022;-86
2023/03/13 08:47:24;;;;;;;6.05;1.60;;;11.80;99.90;;;;;;6042815;23;20041;-85
2023/03/13 08:49:50;;;;;;;6.40;2.10;;;11.90;99.90;;;;;;6043480;23;20014;-86
2023/03/13 08:52:25;;;;;;;5.82;2.63;;;11.80;99.90;;;;;;6041579;23;20513;-86
2023/03/13 08:54:51;;;;;;;4.18;2.17;;;11.90;99.90;;;;;;6066903;23;20015;-85
2023/03/13 08:57:18;;;;;;;4.18;1.70;;;12.10;99.90;;;;;;6040928;23;20033;-85
2023/03/13 08:59:49;;;;;;;3.53;1.60;;;12.20;99.90;;;;;;6068052;23;20518;-86
2023/03/13 09:02:18;;;;;;;7.13;2.30;;;12.30;99.90;;;;;;6043657;23;20019;-85
2023/03/13 09:04:45;;;;;;;4.63;1.75;;;12.40;99.90;;;;;;6067166;23;20014;-85
2023/03/13 09:07:10;;;;;;;4.45;1.85;;;12.40;99.90;;;;;;6067230;23;20026;-86
2023/03/13 09:09:36;;;;;;;6.68;1.55;;;12.50;99.90;;;;;;6067788;23;20014;-86
2023/03/13 09:12:03;;;;;;;5.13;2.00;;;12.40;99.90;;;;;;6043128;23;20078;-87
2023/03/13 09:15:01;;;;;;;5.68;1.95;;;12.50;99.90;;;;;;6042962;23;20025;-86
2023/03/13 09:18:16;;;;;;;6.95;1.88;;;12.30;99.90;;;;;;5946875;24;20331;-86
2023/03/13 09:21:42;;;;;;;;;;;11.80;99.90;;;;;;6055309;23;20375;-86
2023/03/13 09:24:58;;;;;;;4.55;1.63;;;12.30;99.90;;;;;;6039598;23;20726;-87
2023/03/13 09:27:45;;;;;;;5.72;2.25;;;12.30;99.90;;;;;;6062533;23;20046;-85
2023/03/13 09:30:11;;;;;;;7.68;2.33;;;12.30;99.90;;;;;;6016150;23;20015;-86
2023/03/13 09:32:39;;;;;;;5.93;1.63;;;12.30;99.90;;;;;;6023417;23;20343;-86
2023/03/13 09:35:05;;;;;;;7.28;2.35;;;12.70;99.90;;;;;;6070175;23;20102;-85
2023/03/13 09:37:31;;;;;;;11.43;1.98;;;12.30;99.90;;;;;;6069250;23;20054;-85
2023/03/13 09:40:03;;;;;;;6.20;2.25;;;13.10;99.90;;;;;;6069994;23;20049;-87
2023/03/13 09:42:46;;;;;;;8.48;2.25;;;12.30;99.90;;;;;;6060170;23;20463;-86
2023/03/13 09:45:17;;;;;;;4.68;1.35;;;12.40;99.90;;;;;;6044679;23;20034;-86
2023/03/13 09:47:51;;;;;;;3.28;1.42;;;12.40;99.90;;;;;;6067272;23;20011;-86
2023/03/13 09:50:20;;;;;;;5.88;1.27;;;12.60;99.90;;;;;;6068719;23;20042;-86
2023/03/13 09:52:51;;;;;;;6.10;1.52;;;12.50;99.90;;;;;;6067479;23;20336;-86
2023/03/13 09:55:21;;;;;;;5.47;1.80;;;12.50;99.90;;;;;;6068493;23;20363;-87
2023/03/13 09:58:03;;;;;;;6.75;1.85;;;12.80;99.90;;;;;;6068831;23;20021;-86
2023/03/13 10:01:07;;;;;;;9.15;2.00;;;12.60;99.90;;;;;;6044371;23;20093;-87
2023/03/13 10:04:46;;;;;;;6.55;1.65;;;12.80;99.90;;;;;;6031533;23;20058;-87
2023/03/13 10:07:12;;;;;;;7.40;1.73;;;13.00;99.90;;;;;;6043524;23;20124;-86
2023/03/13 10:09:39;;;;;;;7.10;1.83;;;13.10;99.90;;;;;;6044090;23;20018;-86
2023/03/13 10:12:14;;;;;;;7.90;1.10;;;13.10;99.90;;;;;;6068237;23;20018;-86
2023/03/13 10:15:17;;;;;;;7.80;1.60;;;13.10;99.90;;;;;;6045484;23;20379;-88
2023/03/13 10:17:49;;;;;;;12.63;2.63;;;13.20;99.90;;;;;;6045451;23;20476;-87
2023/03/13 10:31:56;;;;;;;6.50;1.33;;;13.20;99.90;;;;;;6093711;23;20069;-86
2023/03/13 10:52:57;;;;;;;11.73;2.55;;;13.70;99.90;;;;;;6093985;23;20049;-86
2023/03/13 10:55:24;;;;;;;8.57;2.20;;;13.70;99.90;;;;;;6044031;23;20066;-86
2023/03/13 10:58:04;;;;;;;13.25;2.38;;;13.70;99.90;;;;;;6066755;23;20805;-86
2023/03/13 11:00:39;;;;;;;11.98;3.47;;;14.10;99.90;;;;;;6043571;23;20046;-86
2023/03/13 11:03:38;;;;;;;10.63;2.08;;;13.40;99.90;;;;;;6068271;23;20019;-87
2023/03/13 11:06:40;;;;;;;9.10;2.03;;;14.00;99.90;;;;;;6043106;23;20025;-87
2023/03/13 11:09:26;;;;;;;9.85;2.45;;;14.00;99.90;;;;;;6094146;23;20104;-87
2023/03/13 11:11:54;;;;;;;11.27;2.20;;;14.10;99.90;;;;;;6043724;23;20018;-87
2023/03/13 11:14:26;;;;;;;8.40;1.63;;;14.20;99.90;;;;;;6044431;23;20015;-86
2023/03/13 11:17:14;;;;;;;8.75;2.17;;;14.20;99.90;;;;;;6072031;23;20018;-87
2023/03/13 11:20:15;;;;;;;6.43;1.60;;;14.20;99.90;;;;;;6045362;23;20021;-87
2023/03/13 11:23:37;;;;;;;4.40;1.40;;;14.30;99.90;;;;;;5981014;23;20043;-85
2023/03/13 11:26:41;;;;;;;6.07;1.38;;;14.30;99.90;;;;;;5905398;24;20537;-85
2023/03/13 11:39:00;;;;;;;5.57;0.90;;;14.50;99.90;;;;;;6151340;23;20021;-86
2023/03/13 11:49:36;;;;;;;5.50;0.82;;;14.70;99.90;;;;;;6087231;23;20013;-86
2023/03/13 11:57:28;;;;;;;4.38;0.88;;;14.60;99.90;;;;;;5913816;24;20499;-86
2023/03/13 14:59:30;;;;;;;14.98;3.10;;;14.40;99.90;;;;;;6121841;23;20065;-86
2023/03/13 16:22:40;;;;;;;23.40;4.60;;;13.50;99.90;;;;;;6126519;23;20029;-87
2023/03/13 16:25:47;;;;;;;31.45;5.75;;;13.50;99.90;;;;;;6062066;23;20498;-84
2023/03/13 16:31:54;;;;;;;18.75;3.83;;;13.30;99.90;;;;;;6153290;23;20071;-85
2023/03/13 16:38:32;;;;;;;22.00;4.40;;;13.20;99.90;;;;;;6153036;23;20091;-87
2023/03/13 16:41:08;;;;;;;26.67;4.88;;;12.90;99.90;;;;;;6106422;23;20022;-88
2023/03/13 16:43:34;;;;;;;18.20;4.85;;;13.00;99.90;;;;;;6132211;23;20029;-84
2023/03/13 16:46:43;;;;;;;22.40;4.88;;;13.00;99.90;;;;;;6046610;23;20021;-86
2023/03/13 16:49:58;;;;;;;27.48;5.10;;;12.90;99.90;;;;;;5956927;24;20021;-87
2023/03/13 16:53:32;;;;;;;20.98;4.20;;;12.80;99.90;;;;;;6042184;23;20348;-88
2023/03/13 16:56:03;;;;;;;30.95;5.63;;;12.80;99.90;;;;;;6015104;23;20367;-85
2023/03/13 16:58:47;;;;;;;18.40;4.28;;;12.60;99.90;;;;;;6015116;23;20015;-85
2023/03/13 17:02:28;;;;;;;22.33;5.47;;;12.60;99.90;;;;;;6046328;23;20034;-86
2023/03/13 17:05:55;;;;;;;19.30;4.88;;;12.50;99.90;;;;;;6017752;23;20027;-86
2023/03/13 17:08:29;;;;;;;22.83;4.82;;;12.40;99.90;;;;;;6115534;23;20006;-83
2023/03/13 17:11:21;;;;;;;26.33;5.55;;;12.30;99.90;;;;;;6141224;23;20517;-86
2023/03/13 17:14:09;;;;;;;24.55;4.72;;;12.20;99.90;;;;;;6088357;23;20024;-86
2023/03/13 17:16:50;;;;;;;19.77;6.18;;;12.10;99.90;;;;;;6114973;23;20454;-87
2023/03/13 17:19:40;;;;;;;26.30;5.50;;;12.50;99.90;;;;;;6103556;23;20020;-87
2023/03/13 17:22:25;;;;;;;31.52;7.70;;;12.10;99.90;;;;;;6112456;23;20017;-85
2023/03/13 17:25:20;;;;;;;24.85;4.78;;;12.20;99.90;;;;;;6105929;23;20024;-85
2023/03/13 17:31:14;;;;;;;23.85;5.10;;;11.90;99.90;;;;;;6151181;23;20107;-88
2023/03/13 17:34:08;;;;;;;24.73;4.53;;;12.60;99.90;;;;;;6104309;23;20021;-85
2023/03/13 17:36:49;;;;;;;23.30;4.45;;;11.90;99.90;;;;;;6124503;23;20020;-86
2023/03/13 17:39:20;;;;;;;24.40;5.22;;;12.10;99.90;;;;;;6149034;23;20092;-85
2023/03/13 17:42:37;;;;;;;27.95;5.57;;;11.90;99.90;;;;;;6153422;23;20612;-87
2023/03/13 17:45:04;;;;;;;21.55;4.43;;;11.80;99.90;;;;;;6106114;23;20474;-87
2023/03/13 17:47:30;;;;;;;21.17;4.80;;;11.70;99.90;;;;;;6104194;23;20096;-87
2023/03/13 17:50:25;;;;;;;24.60;4.80;;;11.70;99.90;;;;;;6103311;23;20050;-86
2023/03/13 17:56:58;;;;;;;20.45;5.30;;;11.60;99.90;;;;;;6154121;23;20385;-86
2023/03/13 18:03:53;;;;;;;22.70;4.63;;;11.60;99.90;;;;;;6036019;23;19960;-86
2023/03/13 18:15:06;;;;;;;24.25;5.47;;;11.50;99.90;;;;;;5923053;24;20012;-85
2023/03/13 18:17:54;;;;;;;27.20;5.80;;;11.40;99.90;;;;;;5898342;24;20718;-85
2023/03/13 18:20:53;;;;;;;26.40;6.10;;;11.30;99.90;;;;;;5900084;24;20680;-86
2023/03/13 18:23:22;;;;;;;25.60;4.55;;;11.40;99.90;;;;;;5930597;23;20061;-86
2023/03/13 18:25:47;;;;;;;24.50;5.35;;;11.90;99.90;;;;;;6051238;23;20013;-86
2023/03/13 18:28:13;;;;;;;21.67;4.50;;;11.40;99.90;;;;;;6105474;23;20009;-86
2023/03/13 18:30:38;;;;;;;22.58;4.75;;;11.80;99.90;;;;;;6131209;23;20096;-86
2023/03/13 18:33:04;;;;;;;25.25;5.43;;;11.90;99.90;;;;;;6131279;23;20140;-85
2023/03/13 18:35:30;;;;;;;25.27;5.57;;;11.40;99.90;;;;;;6130136;23;20645;-86
2023/03/13 18:37:56;;;;;;;26.55;6.32;;;11.70;99.90;;;;;;6104888;23;20006;-85
2023/03/13 18:40:27;;;;;;;27.83;5.90;;;11.30;99.90;;;;;;6129742;23;20010;-86
2023/03/13 18:42:53;;;;;;;24.15;5.50;;;11.40;99.90;;;;;;6129579;23;20319;-86
2023/03/13 18:45:21;;;;;;;25.23;5.30;;;11.30;99.90;;;;;;6128769;23;20021;-87
2023/03/13 18:47:46;;;;;;;28.52;5.70;;;11.20;99.90;;;;;;6104597;23;20338;-88
2023/03/13 18:50:31;;;;;;;23.00;5.20;;;11.10;99.90;;;;;;6104910;23;20009;-86
2023/03/13 18:53:00;;;;;;;22.83;5.30;;;11.20;99.90;;;;;;6104195;23;20014;-86